Impacts TAF Board INFO
FOR SITUATIONAL AWARENESS. NOT TO BE USED FOR FLIGHT PLANNING PURPOSES.
IDs:

KBOS - Boston/Logan Intl, MA, US

Issued at 1401 UTC 29 May 2017
Updated at 1700 UTC 29 May 2017
Potential Impact None Slight Moderate High
Time1654Z 29/17Z 29/18Z 29/19Z 29/20Z 29/21Z 29/22Z 29/23Z 30/00Z 30/01Z 30/02Z 30/03Z 30/04Z 30/05Z>>
Type OBS PRVL PRVL PRVL PRVL PRVL PRVL PRVL PRVL PRVL PRVL PRVL PRVL PRVL
VIS 0.5 2 2 2 2 2 2 2 2 2 2 2 2 2
CIG 6 8 8 8 8 8 8 8 8 8 8 8 8 8
Cover OVC OVC OVC OVC OVC OVC OVC OVC OVC OVC OVC OVC OVC OVC
FltCat LIFR IFR IFR IFR IFR IFR IFR IFR IFR IFR IFR IFR IFR IFR
WX -- -RA BR -RA BR -RA BR -RA BR -RA BR -RA BR BR BR BR BR BR BR BR
WDir 80 90 90 90 90 90 90 50 50 50 50 50 50 50
WSpd 11 14 14 14 14 14 14 10 10 10 10 10 10 10
WGst -- -- -- -- -- -- -- -- -- -- -- -- -- --

Raw TAF
KBOS 291401Z 2914/3018 08012KT 1/2SM FG OVC003
  TEMPO 2914/2917 2SM BR
  FM291700 09014KT 2SM -RA BR OVC008
  FM292300 05010KT 2SM BR OVC008
  FM300900 06005KT P6SM BKN010


Raw METAR
KBOS 291654Z 08011KT 1/2SM R04R/P6000FT OVC006 10/09 A3004 RMK AO2 SFC VIS 9 RAE52 SLP171 P0000 T01000094
KBOS 291554Z 09013KT 1/2SM R04R/P6000FT -RA BR OVC006 10/09 A3004 RMK AO2 SFC VIS 1 3/4 RAB06E09B50 SLP173 P0000 T01000094
KBOS 291454Z 08012KT 1/2SM R04R/P6000FT BR OVC005 10/09 A3003 RMK AO2 SFC VIS 6 SLP169 T01000089 55000
KBOS 291450Z 08012KT 1/2SM R04R/P6000FT BR OVC005 10/09 A3003 RMK AO2 SFC VIS 6
KBOS 291354Z 07013KT 1/2SM R04R/P6000FT BR OVC003 09/09 A3002 RMK AO2 SFC VIS 2 1/2 SLP163 T00940094

METAR Board
Radar Display
Forecast Discussion

FOR SITUATIONAL AWARENESS. NOT TO BE USED FOR FLIGHT PLANNING PURPOSES.

Page loaded:  17:00 UTC  |   10:00 AM Pacific  |   11:00 AM Mountain  |   12:00 PM Central  |   01:00 PM Eastern

 

ADVISORIES

FORECASTS

FORECASTS

OBSERVATIONS

USER TOOLS

ABOUT US